createdAt,value
2023-01-21T00:58:31.180Z,-0.90
2023-01-21T01:32:34.396Z,-0.90
2023-01-21T01:35:23.292Z,-0.90
2023-01-21T01:38:13.924Z,-0.90
2023-01-21T01:41:03.303Z,-0.90
2023-01-21T01:44:00.421Z,-1.00
2023-01-21T01:46:49.210Z,-1.00
2023-01-21T01:49:40.189Z,-1.00
2023-01-21T01:52:30.232Z,-1.00
2023-01-21T01:55:18.917Z,-1.00
2023-01-21T01:58:12.079Z,-1.00
2023-01-21T02:01:01.499Z,-1.00
2023-01-21T02:03:58.599Z,-1.00
2023-01-21T02:06:50.216Z,-1.10
2023-01-21T02:09:39.030Z,-1.10
2023-01-21T02:12:27.825Z,-1.20
2023-01-21T02:15:16.681Z,-1.20
2023-01-21T02:18:16.915Z,-1.20
2023-01-21T02:21:41.656Z,-1.20
2023-01-21T02:25:09.404Z,-1.30
2023-01-21T02:28:18.052Z,-1.30
2023-01-21T02:31:42.192Z,-1.40
2023-01-21T02:34:41.168Z,-1.40
2023-01-21T02:37:37.768Z,-1.40
2023-01-21T02:40:34.814Z,-1.50
2023-01-21T02:43:32.230Z,-1.50
2023-01-21T02:46:27.499Z,-1.40
2023-01-21T02:49:22.615Z,-1.50
2023-01-21T02:52:19.258Z,-1.50
2023-01-21T02:55:14.722Z,-1.50
2023-01-21T02:58:06.760Z,-1.50
2023-01-21T03:01:07.122Z,-1.50
2023-01-21T03:04:20.828Z,-1.50
2023-01-21T03:07:18.632Z,-1.60
2023-01-21T03:10:11.840Z,-1.70
2023-01-21T03:13:05.151Z,-1.80
2023-01-21T03:16:15.514Z,-1.70
2023-01-21T03:19:08.038Z,-1.80
2023-01-21T03:21:58.915Z,-1.80
2023-01-21T03:24:52.406Z,-1.90
2023-01-21T03:27:45.915Z,-2.00
2023-01-21T03:30:36.566Z,-2.10
2023-01-21T03:33:25.685Z,-2.20
2023-01-21T03:36:27.603Z,-2.30
2023-01-21T03:39:20.240Z,-2.40
2023-01-21T03:42:10.945Z,-2.40
2023-01-21T03:44:59.772Z,-2.30
2023-01-21T03:47:53.364Z,-2.40
2023-01-21T03:50:45.436Z,-2.30
2023-01-21T03:53:34.149Z,-2.50
2023-01-21T03:56:22.822Z,-2.50
2023-01-21T03:59:13.643Z,-2.60
2023-01-21T04:02:02.311Z,-2.70
2023-01-21T04:04:53.212Z,-2.70
2023-01-21T04:07:41.930Z,-2.80
2023-01-21T04:10:30.529Z,-2.80
2023-01-21T04:13:19.180Z,-2.90
2023-01-21T04:16:10.239Z,-2.90
2023-01-21T04:18:58.911Z,-3.00
2023-01-21T04:21:47.488Z,-2.90
2023-01-21T04:24:36.079Z,-2.90
2023-01-21T04:27:24.735Z,-2.90
2023-01-21T04:30:13.756Z,-3.00
2023-01-21T04:33:03.807Z,-3.00
2023-01-21T04:35:52.493Z,-3.10
2023-01-21T04:38:41.172Z,-3.10
2023-01-21T04:41:29.941Z,-3.10
2023-01-21T04:44:18.567Z,-3.00
2023-01-21T04:47:07.249Z,-3.00
2023-01-21T04:49:57.248Z,-3.10
2023-01-21T04:52:45.928Z,-3.00
2023-01-21T04:55:34.583Z,-3.10
2023-01-21T04:58:23.240Z,-3.10
2023-01-21T05:01:11.894Z,-3.10
2023-01-21T05:04:00.532Z,-3.10
2023-01-21T05:06:50.652Z,-3.10
2023-01-21T05:09:39.288Z,-3.10
2023-01-21T05:12:27.896Z,-3.10
2023-01-21T05:15:16.558Z,-3.10
2023-01-21T05:18:05.364Z,-3.10
2023-01-21T05:20:54.844Z,-3.10
2023-01-21T05:23:44.899Z,-3.10
2023-01-21T05:26:33.552Z,-3.10
2023-01-21T05:29:22.144Z,-3.10
2023-01-21T05:32:11.649Z,-3.10
2023-01-21T05:35:00.285Z,-3.00
2023-01-21T05:37:48.964Z,-3.00
2023-01-21T05:40:39.092Z,-3.00
2023-01-21T05:43:28.250Z,-3.00
2023-01-21T05:46:17.261Z,-3.10
2023-01-21T05:49:06.623Z,-3.00
2023-01-21T05:51:55.290Z,-3.00
2023-01-21T05:55:00.632Z,-3.00
2023-01-21T05:57:51.911Z,-3.00
2023-01-21T06:00:43.135Z,-3.00
2023-01-21T06:03:32.096Z,-3.00
2023-01-21T06:06:20.826Z,-3.00
2023-01-21T06:09:09.812Z,-3.10
2023-01-21T06:11:58.463Z,-3.10
2023-01-21T06:14:48.536Z,-3.00
2023-01-21T06:17:40.529Z,-3.10
2023-01-21T06:20:31.517Z,-3.10
2023-01-21T06:23:20.126Z,-3.10
2023-01-21T06:26:12.073Z,-3.20
2023-01-21T06:29:00.971Z,-3.20
2023-01-21T06:31:51.299Z,-3.30
2023-01-21T06:34:40.036Z,-3.30
2023-01-21T06:37:29.315Z,-3.30
2023-01-21T06:40:18.516Z,-3.30
2023-01-21T06:43:07.437Z,-3.30
2023-01-21T06:45:56.094Z,-3.20
2023-01-21T06:48:46.324Z,-3.20
2023-01-21T06:51:35.044Z,-3.30
2023-01-21T06:54:23.791Z,-3.20
2023-01-21T06:57:13.080Z,-3.10
2023-01-21T07:00:01.918Z,-3.10
2023-01-21T07:02:50.638Z,-3.10
2023-01-21T07:05:40.731Z,-3.10
2023-01-21T07:08:29.447Z,-3.10
2023-01-21T07:11:18.098Z,-3.10
2023-01-21T07:14:06.756Z,-3.10
2023-01-21T07:16:55.367Z,-3.10
2023-01-21T07:19:44.111Z,-3.00
2023-01-21T07:22:35.299Z,-3.00
2023-01-21T07:25:24.657Z,-3.10
2023-01-21T07:28:13.363Z,-3.10
2023-01-21T07:31:02.681Z,-3.10
2023-01-21T07:33:52.076Z,-3.00
2023-01-21T07:36:40.716Z,-3.00
2023-01-21T07:39:48.004Z,-3.00
2023-01-21T07:42:36.728Z,-2.90
2023-01-21T07:45:26.157Z,-2.80
2023-01-21T07:48:14.814Z,-2.80
2023-01-21T07:51:03.649Z,-2.80
2023-01-21T07:53:52.435Z,-2.80
2023-01-21T07:56:42.954Z,-2.80
2023-01-21T07:59:31.653Z,-2.90
2023-01-21T08:02:20.383Z,-2.90
2023-01-21T08:05:10.004Z,-2.90
2023-01-21T08:07:59.447Z,-2.90
2023-01-21T08:10:53.719Z,-2.80
2023-01-21T08:13:44.715Z,-2.70
2023-01-21T08:16:33.471Z,-2.60
2023-01-21T11:12:45.490Z,-1.40
2023-01-21T14:38:34.754Z,-1.30
2023-01-21T14:41:23.416Z,-1.30
2023-01-21T14:44:37.671Z,-1.30
2023-01-21T14:47:43.850Z,-1.40
2023-01-21T14:50:47.671Z,-1.40
2023-01-21T14:53:46.503Z,-1.40
2023-01-21T14:56:36.501Z,-1.50
2023-01-21T14:59:33.486Z,-1.40
2023-01-21T15:02:34.711Z,-1.40
2023-01-21T15:05:27.576Z,-1.40
2023-01-21T15:08:22.911Z,-1.40
2023-01-21T15:11:21.642Z,-1.40
2023-01-21T15:14:16.804Z,-1.40
2023-01-21T15:17:06.064Z,-1.30
2023-01-21T15:19:59.197Z,-1.30
2023-01-21T15:23:04.480Z,-1.30
2023-01-21T15:26:42.445Z,-1.20
2023-01-21T15:29:36.911Z,-1.30
2023-01-21T15:32:31.719Z,-1.30
2023-01-21T15:35:26.543Z,-1.40
2023-01-21T15:38:17.572Z,-1.40
2023-01-21T15:41:20.573Z,-1.40
2023-01-21T15:44:25.932Z,-1.40
2023-01-21T15:47:39.013Z,-1.40
2023-01-21T15:50:32.463Z,-1.50
2023-01-21T16:34:13.418Z,-1.60
2023-01-21T16:37:06.953Z,-1.60
2023-01-21T16:39:57.140Z,-1.60
2023-01-21T16:42:45.977Z,-1.60
2023-01-21T16:45:34.667Z,-1.60
2023-01-21T16:48:31.951Z,-1.60
2023-01-21T16:51:26.792Z,-1.60
2023-01-21T16:54:29.460Z,-1.60
2023-01-21T16:57:31.935Z,-1.60
2023-01-21T17:00:26.975Z,-1.60
2023-01-21T17:03:16.416Z,-1.70
2023-01-21T17:06:10.174Z,-1.70
2023-01-21T17:09:05.095Z,-1.70
2023-01-21T17:11:54.109Z,-1.70
2023-01-21T17:14:42.738Z,-1.70
2023-01-21T17:17:36.783Z,-1.70
2023-01-21T17:20:40.531Z,-1.80
2023-01-21T17:23:32.094Z,-1.80
2023-01-21T17:26:26.016Z,-1.80
2023-01-21T17:29:20.561Z,-1.80
2023-01-21T17:32:25.821Z,-1.70
2023-01-21T17:35:21.848Z,-1.80
2023-01-21T17:38:30.163Z,-1.90
2023-01-21T17:41:26.439Z,-1.90
2023-01-21T17:44:20.952Z,-2.00
2023-01-21T17:47:23.095Z,-1.90
2023-01-21T17:50:20.905Z,-2.00
2023-01-21T17:53:21.222Z,-2.00
2023-01-21T17:56:09.955Z,-2.00
2023-01-21T17:59:02.644Z,-2.00
2023-01-21T18:01:51.326Z,-2.00
2023-01-21T18:04:40.219Z,-2.00
2023-01-21T18:07:30.887Z,-2.00
2023-01-21T18:10:22.403Z,-2.00
2023-01-21T18:13:13.352Z,-2.00
2023-01-21T18:16:03.461Z,-2.00
2023-01-21T18:18:54.233Z,-2.00
2023-01-21T18:21:43.353Z,-2.00
2023-01-21T18:24:32.032Z,-2.00
2023-01-21T18:27:25.704Z,-2.00
2023-01-21T18:30:18.096Z,-2.00
2023-01-21T18:33:08.111Z,-1.90
2023-01-21T18:35:56.993Z,-2.00
2023-01-21T18:38:45.677Z,-2.00
2023-01-21T18:41:34.277Z,-1.90
2023-01-21T18:44:22.982Z,-1.80
2023-01-21T18:47:13.509Z,-1.80
2023-01-21T18:50:03.798Z,-1.80
2023-01-21T18:52:52.720Z,-1.80
2023-01-21T18:55:43.996Z,-1.80
2023-01-21T18:58:32.589Z,-1.80
2023-01-21T19:01:23.900Z,-1.80
2023-01-21T19:04:15.805Z,-1.80
2023-01-21T19:07:10.248Z,-1.80
2023-01-21T19:09:58.891Z,-1.90
2023-01-21T19:12:48.245Z,-2.00
2023-01-21T19:15:37.195Z,-2.00
2023-01-21T19:18:27.736Z,-1.90
2023-01-21T19:21:16.374Z,-1.90
2023-01-21T19:24:07.474Z,-1.90
2023-01-21T19:26:56.220Z,-2.00
2023-01-21T19:29:44.839Z,-2.00
2023-01-21T19:32:33.476Z,-2.00
2023-01-21T19:35:27.923Z,-2.00
2023-01-21T19:38:19.534Z,-2.00
2023-01-21T19:41:09.584Z,-2.00
2023-01-21T19:43:58.208Z,-2.00
2023-01-21T19:46:46.880Z,-2.00
2023-01-21T19:49:35.418Z,-2.00
2023-01-21T19:52:24.072Z,-2.00
2023-01-21T19:55:15.839Z,-2.00
2023-01-21T19:58:19.712Z,-2.00
2023-01-21T20:01:08.541Z,-2.00
2023-01-21T20:04:00.624Z,-1.90
2023-01-21T20:06:49.628Z,-2.00
2023-01-21T20:09:38.195Z,-2.00
2023-01-21T20:12:26.779Z,-2.00
2023-01-21T20:15:18.916Z,-1.90
2023-01-21T20:18:12.386Z,-1.90
2023-01-21T20:21:01.046Z,-1.90
2023-01-21T20:23:49.654Z,-1.90
2023-01-21T20:26:39.465Z,-1.90
2023-01-21T20:29:28.086Z,-1.90
2023-01-21T20:32:18.084Z,-1.90
2023-01-21T20:35:07.796Z,-1.90
2023-01-21T20:37:58.977Z,-1.90
2023-01-21T20:40:47.715Z,-2.00
2023-01-21T20:43:36.317Z,-2.00
2023-01-21T20:46:28.720Z,-1.90
2023-01-21T20:49:18.730Z,-2.00
2023-01-21T20:52:07.368Z,-1.90
2023-01-21T20:54:55.964Z,-2.00
2023-01-21T20:57:44.575Z,-2.00
2023-01-21T21:00:34.932Z,-2.00
2023-01-21T21:03:23.531Z,-2.00
2023-01-21T21:06:18.847Z,-2.00
2023-01-21T21:09:07.422Z,-2.00
2023-01-21T21:11:56.052Z,-2.00
2023-01-21T21:14:44.656Z,-1.90
2023-01-21T21:17:33.287Z,-1.90
2023-01-21T21:20:23.781Z,-1.90
2023-01-21T21:23:16.073Z,-1.90
2023-01-21T21:26:04.661Z,-1.90
2023-01-21T21:28:55.743Z,-1.90
2023-01-21T21:31:44.437Z,-1.90
2023-01-21T21:34:33.123Z,-1.90
2023-01-21T21:37:22.015Z,-1.90
2023-01-21T21:40:13.580Z,-1.90
2023-01-21T21:43:19.877Z,-1.90
2023-01-21T21:46:27.082Z,-1.90
2023-01-21T21:49:15.743Z,-1.90
2023-01-21T21:52:04.461Z,-1.90
2023-01-21T21:54:54.283Z,-1.90
2023-01-21T21:57:44.319Z,-1.90
2023-01-21T22:00:32.921Z,-2.00
2023-01-21T22:03:21.554Z,-2.00
2023-01-21T22:06:11.106Z,-2.10
2023-01-21T22:08:59.912Z,-2.00
2023-01-21T22:11:49.911Z,-2.00
2023-01-21T22:14:39.919Z,-2.00
2023-01-21T22:17:28.861Z,-2.00
2023-01-21T22:20:17.529Z,-2.00
2023-01-21T22:23:06.166Z,-2.10
2023-01-21T22:25:56.222Z,-2.10
2023-01-21T22:28:45.703Z,-2.10
2023-01-21T22:31:36.156Z,-2.10
2023-01-21T22:34:24.853Z,-2.00
2023-01-21T22:37:13.465Z,-2.00
2023-01-21T22:40:02.052Z,-2.10
2023-01-21T22:42:50.679Z,-2.00
2023-01-21T22:45:41.279Z,-2.00
2023-01-21T22:48:34.004Z,-2.00
2023-01-21T22:51:23.492Z,-2.00
2023-01-21T22:54:12.360Z,-2.10
2023-01-21T22:57:00.975Z,-2.00
2023-01-21T22:59:49.544Z,-2.00
2023-01-21T23:02:38.167Z,-2.00
2023-01-21T23:05:29.192Z,-2.00
2023-01-21T23:08:18.742Z,-2.00
2023-01-21T23:11:09.377Z,-2.10
2023-01-21T23:13:58.003Z,-2.10
2023-01-21T23:16:46.741Z,-2.10
2023-01-21T23:19:35.321Z,-2.10
2023-01-21T23:22:25.465Z,-2.10
2023-01-21T23:25:15.335Z,-2.10
2023-01-21T23:28:09.876Z,-2.10
2023-01-21T23:30:58.552Z,-2.10
2023-01-21T23:33:50.757Z,-2.10
2023-01-21T23:36:39.322Z,-2.10
2023-01-21T23:39:29.840Z,-2.20
2023-01-21T23:42:19.507Z,-2.20
2023-01-21T23:45:08.846Z,-2.20
2023-01-21T23:47:57.475Z,-2.20
2023-01-21T23:50:46.069Z,-2.20
2023-01-21T23:53:35.700Z,-2.10
2023-01-21T23:56:26.836Z,-2.20
2023-01-21T23:59:15.465Z,-2.10
